sensor_id;sensor_type;location;lat;lon;timestamp;pressure;altitude;pressure_sealevel;temperature;humidity
12757;BME280;31601;48.042;12.240;2022-09-27T00:00:32;94702.53;;;13.71;63.00
12757;BME280;31601;48.042;12.240;2022-09-27T00:02:58;94699.41;;;13.74;63.31
12757;BME280;31601;48.042;12.240;2022-09-27T00:05:27;94694.06;;;13.69;63.74
12757;BME280;31601;48.042;12.240;2022-09-27T00:07:54;94697.13;;;13.61;63.96
12757;BME280;31601;48.042;12.240;2022-09-27T00:10:21;94702.44;;;13.66;64.05
12757;BME280;31601;48.042;12.240;2022-09-27T00:12:47;94696.63;;;13.64;63.74
12757;BME280;31601;48.042;12.240;2022-09-27T00:15:14;94692.94;;;13.65;63.72
12757;BME280;31601;48.042;12.240;2022-09-27T00:17:41;94682.41;;;13.65;63.82
12757;BME280;31601;48.042;12.240;2022-09-27T00:20:08;94683.47;;;13.64;64.36
12757;BME280;31601;48.042;12.240;2022-09-27T00:22:37;94679.53;;;13.67;64.31
12757;BME280;31601;48.042;12.240;2022-09-27T00:25:04;94673.88;;;13.58;64.90
12757;BME280;31601;48.042;12.240;2022-09-27T00:27:31;94676.59;;;13.63;64.75
12757;BME280;31601;48.042;12.240;2022-09-27T00:29:58;94679.47;;;13.61;65.08
12757;BME280;31601;48.042;12.240;2022-09-27T00:32:24;94671.78;;;13.60;64.85
12757;BME280;31601;48.042;12.240;2022-09-27T00:34:51;94667.88;;;13.63;64.88
12757;BME280;31601;48.042;12.240;2022-09-27T00:37:17;94659.16;;;13.62;65.25
12757;BME280;31601;48.042;12.240;2022-09-27T00:39:45;94667.41;;;13.66;65.46
12757;BME280;31601;48.042;12.240;2022-09-27T00:42:12;94659.28;;;13.50;65.68
12757;BME280;31601;48.042;12.240;2022-09-27T00:45:00;94663.19;;;13.48;65.78
12757;BME280;31601;48.042;12.240;2022-09-27T00:47:32;94657.50;;;13.56;65.70
12757;BME280;31601;48.042;12.240;2022-09-27T00:50:02;94648.72;;;13.50;66.27
12757;BME280;31601;48.042;12.240;2022-09-27T00:52:36;94648.41;;;13.47;66.53
12757;BME280;31601;48.042;12.240;2022-09-27T00:55:10;94646.00;;;13.45;66.81
12757;BME280;31601;48.042;12.240;2022-09-27T00:57:38;94640.50;;;13.47;66.87
12757;BME280;31601;48.042;12.240;2022-09-27T01:00:08;94640.91;;;13.38;66.96
12757;BME280;31601;48.042;12.240;2022-09-27T01:02:36;94640.44;;;13.41;66.93
12757;BME280;31601;48.042;12.240;2022-09-27T01:05:04;94636.28;;;13.46;66.95
12757;BME280;31601;48.042;12.240;2022-09-27T01:07:32;94633.72;;;13.51;66.83
12757;BME280;31601;48.042;12.240;2022-09-27T01:09:59;94620.47;;;13.46;66.99
12757;BME280;31601;48.042;12.240;2022-09-27T01:12:33;94623.41;;;13.49;67.29
12757;BME280;31601;48.042;12.240;2022-09-27T01:15:10;94630.06;;;13.52;66.83
12757;BME280;31601;48.042;12.240;2022-09-27T01:17:48;94625.31;;;13.54;66.64
12757;BME280;31601;48.042;12.240;2022-09-27T01:20:27;94619.03;;;13.55;66.52
12757;BME280;31601;48.042;12.240;2022-09-27T01:23:24;94623.97;;;13.51;66.49
12757;BME280;31601;48.042;12.240;2022-09-27T01:26:04;94622.53;;;13.43;66.65
12757;BME280;31601;48.042;12.240;2022-09-27T01:28:48;94625.47;;;13.30;66.30
12757;BME280;31601;48.042;12.240;2022-09-27T01:31:21;94628.75;;;13.37;66.08
12757;BME280;31601;48.042;12.240;2022-09-27T01:33:56;94636.75;;;13.42;65.97
12757;BME280;31601;48.042;12.240;2022-09-27T01:36:32;94640.69;;;13.11;67.11
12757;BME280;31601;48.042;12.240;2022-09-27T01:39:10;94624.59;;;13.24;66.92
12757;BME280;31601;48.042;12.240;2022-09-27T01:41:46;94621.91;;;13.36;66.72
12757;BME280;31601;48.042;12.240;2022-09-27T01:44:21;94623.97;;;13.34;67.22
12757;BME280;31601;48.042;12.240;2022-09-27T01:46:53;94632.31;;;13.31;67.20
12757;BME280;31601;48.042;12.240;2022-09-27T01:49:25;94627.25;;;13.41;67.06
12757;BME280;31601;48.042;12.240;2022-09-27T01:51:57;94619.66;;;13.45;67.35
12757;BME280;31601;48.042;12.240;2022-09-27T01:54:29;94626.13;;;13.37;67.53
12757;BME280;31601;48.042;12.240;2022-09-27T01:56:59;94616.16;;;13.39;67.76
12757;BME280;31601;48.042;12.240;2022-09-27T01:59:30;94621.75;;;13.43;67.92
12757;BME280;31601;48.042;12.240;2022-09-27T02:02:03;94623.66;;;13.48;67.87
12757;BME280;31601;48.042;12.240;2022-09-27T02:04:34;94624.78;;;13.52;67.92
12757;BME280;31601;48.042;12.240;2022-09-27T02:07:07;94608.97;;;13.52;67.91
12757;BME280;31601;48.042;12.240;2022-09-27T02:09:36;94626.84;;;13.50;67.70
12757;BME280;31601;48.042;12.240;2022-09-27T02:12:06;94620.53;;;13.51;67.62
12757;BME280;31601;48.042;12.240;2022-09-27T02:14:37;94611.03;;;13.50;67.67
12757;BME280;31601;48.042;12.240;2022-09-27T02:17:15;94624.19;;;13.50;67.39
12757;BME280;31601;48.042;12.240;2022-09-27T02:19:52;94620.78;;;13.49;67.54
12757;BME280;31601;48.042;12.240;2022-09-27T02:22:25;94609.53;;;13.37;67.97
12757;BME280;31601;48.042;12.240;2022-09-27T02:24:59;94615.56;;;13.03;69.03
12757;BME280;31601;48.042;12.240;2022-09-27T02:27:29;94611.97;;;13.10;68.96
12757;BME280;31601;48.042;12.240;2022-09-27T02:30:01;94610.22;;;13.15;68.63
12757;BME280;31601;48.042;12.240;2022-09-27T02:32:29;94612.78;;;13.10;68.86
12757;BME280;31601;48.042;12.240;2022-09-27T02:34:59;94608.72;;;13.02;69.10
12757;BME280;31601;48.042;12.240;2022-09-27T02:37:26;94613.81;;;12.92;69.74
12757;BME280;31601;48.042;12.240;2022-09-27T02:39:53;94618.84;;;12.94;69.79
12757;BME280;31601;48.042;12.240;2022-09-27T02:42:20;94611.00;;;12.99;69.56
12757;BME280;31601;48.042;12.240;2022-09-27T02:44:46;94613.41;;;13.00;69.59
12757;BME280;31601;48.042;12.240;2022-09-27T02:47:33;94613.91;;;13.14;69.22
12757;BME280;31601;48.042;12.240;2022-09-27T02:50:13;94611.97;;;13.10;69.47
12757;BME280;31601;48.042;12.240;2022-09-27T02:52:49;94613.91;;;13.14;69.45
12757;BME280;31601;48.042;12.240;2022-09-27T02:55:21;94611.34;;;13.02;69.95
12757;BME280;31601;48.042;12.240;2022-09-27T02:57:59;94603.06;;;13.11;69.60
12757;BME280;31601;48.042;12.240;2022-09-27T03:00:35;94617.81;;;13.12;69.77
12757;BME280;31601;48.042;12.240;2022-09-27T03:03:09;94609.81;;;13.06;69.95
12757;BME280;31601;48.042;12.240;2022-09-27T03:05:42;94615.50;;;13.15;69.79
12757;BME280;31601;48.042;12.240;2022-09-27T03:08:11;94612.09;;;13.15;69.90
12757;BME280;31601;48.042;12.240;2022-09-27T03:10:37;94610.22;;;13.15;70.08
12757;BME280;31601;48.042;12.240;2022-09-27T03:13:04;94615.03;;;13.18;70.22
12757;BME280;31601;48.042;12.240;2022-09-27T03:15:31;94614.38;;;13.28;70.07
12757;BME280;31601;48.042;12.240;2022-09-27T03:17:57;94615.03;;;13.18;70.42
12757;BME280;31601;48.042;12.240;2022-09-27T03:20:25;94612.47;;;13.23;70.52
12757;BME280;31601;48.042;12.240;2022-09-27T03:22:52;94606.88;;;13.20;70.60
12757;BME280;31601;48.042;12.240;2022-09-27T03:25:18;94608.56;;;13.26;70.57
12757;BME280;31601;48.042;12.240;2022-09-27T03:27:45;94621.50;;;13.28;70.72
12757;BME280;31601;48.042;12.240;2022-09-27T03:30:12;94628.59;;;13.27;70.68
12757;BME280;31601;48.042;12.240;2022-09-27T03:32:41;94633.69;;;13.17;71.06
12757;BME280;31601;48.042;12.240;2022-09-27T03:35:07;94631.22;;;13.27;70.61
12757;BME280;31601;48.042;12.240;2022-09-27T03:37:35;94626.50;;;13.29;70.45
12757;BME280;31601;48.042;12.240;2022-09-27T03:40:03;94633.38;;;13.30;70.47
12757;BME280;31601;48.042;12.240;2022-09-27T03:42:29;94615.44;;;13.27;70.54
12757;BME280;31601;48.042;12.240;2022-09-27T03:44:56;94604.31;;;13.25;70.46
12757;BME280;31601;48.042;12.240;2022-09-27T03:47:22;94600.72;;;13.14;70.96
12757;BME280;31601;48.042;12.240;2022-09-27T03:49:49;94594.44;;;12.98;71.11
12757;BME280;31601;48.042;12.240;2022-09-27T03:52:15;94588.53;;;12.91;71.21
12757;BME280;31601;48.042;12.240;2022-09-27T03:54:44;94581.50;;;12.80;71.58
12757;BME280;31601;48.042;12.240;2022-09-27T03:57:10;94574.81;;;12.89;71.21
12757;BME280;31601;48.042;12.240;2022-09-27T03:59:37;94570.97;;;12.63;71.35
12757;BME280;31601;48.042;12.240;2022-09-27T04:02:03;94564.09;;;12.62;71.73
12757;BME280;31601;48.042;12.240;2022-09-27T04:04:30;94558.19;;;12.54;71.47
12757;BME280;31601;48.042;12.240;2022-09-27T04:06:56;94554.84;;;12.59;71.55
12757;BME280;31601;48.042;12.240;2022-09-27T04:09:24;94532.34;;;12.34;71.48
12757;BME280;31601;48.042;12.240;2022-09-27T04:11:51;94523.41;;;12.35;71.61
12757;BME280;31601;48.042;12.240;2022-09-27T04:14:19;94528.53;;;12.42;71.63
12757;BME280;31601;48.042;12.240;2022-09-27T04:16:45;94530.09;;;12.43;71.63
12757;BME280;31601;48.042;12.240;2022-09-27T04:19:12;94537.13;;;12.38;71.91
12757;BME280;31601;48.042;12.240;2022-09-27T04:21:38;94534.56;;;12.43;71.91
12757;BME280;31601;48.042;12.240;2022-09-27T04:24:05;94534.75;;;12.53;71.63
12757;BME280;31601;48.042;12.240;2022-09-27T04:26:31;94538.50;;;12.57;71.34
12757;BME280;31601;48.042;12.240;2022-09-27T04:28:59;94528.56;;;12.59;71.26
12757;BME280;31601;48.042;12.240;2022-09-27T04:31:26;94529.56;;;12.58;71.08
12757;BME280;31601;48.042;12.240;2022-09-27T04:33:52;94528.84;;;12.46;71.52
12757;BME280;31601;48.042;12.240;2022-09-27T04:36:20;94530.59;;;12.57;71.64
12757;BME280;31601;48.042;12.240;2022-09-27T04:38:53;94525.75;;;12.49;71.96
12757;BME280;31601;48.042;12.240;2022-09-27T04:41:21;94517.38;;;12.52;71.97
12757;BME280;31601;48.042;12.240;2022-09-27T04:43:48;94516.47;;;12.46;72.34
12757;BME280;31601;48.042;12.240;2022-09-27T04:46:16;94526.28;;;12.51;72.15
12757;BME280;31601;48.042;12.240;2022-09-27T04:48:43;94526.63;;;12.54;71.86
12757;BME280;31601;48.042;12.240;2022-09-27T04:51:10;94532.69;;;12.55;71.72
12757;BME280;31601;48.042;12.240;2022-09-27T04:53:37;94543.28;;;12.60;71.52
12757;BME280;31601;48.042;12.240;2022-09-27T04:56:04;94562.50;;;12.61;71.63
12757;BME280;31601;48.042;12.240;2022-09-27T04:58:32;94566.00;;;12.66;71.37
12757;BME280;31601;48.042;12.240;2022-09-27T05:00:59;94568.56;;;12.61;71.36
12757;BME280;31601;48.042;12.240;2022-09-27T05:03:28;94578.13;;;12.67;71.25
12757;BME280;31601;48.042;12.240;2022-09-27T05:05:54;94568.75;;;12.71;71.21
12757;BME280;31601;48.042;12.240;2022-09-27T05:08:21;94572.22;;;12.60;71.37
12757;BME280;31601;48.042;12.240;2022-09-27T05:10:48;94565.06;;;12.72;71.39
12757;BME280;31601;48.042;12.240;2022-09-27T05:13:14;94570.31;;;12.72;71.38
12757;BME280;31601;48.042;12.240;2022-09-27T05:15:41;94580.25;;;12.53;71.89
12757;BME280;31601;48.042;12.240;2022-09-27T05:18:08;94581.47;;;12.63;71.82
12757;BME280;31601;48.042;12.240;2022-09-27T05:20:36;94576.41;;;12.73;71.78
12757;BME280;31601;48.042;12.240;2022-09-27T05:23:04;94578.78;;;12.75;71.53
12757;BME280;31601;48.042;12.240;2022-09-27T05:25:31;94578.56;;;12.76;71.56
12757;BME280;31601;48.042;12.240;2022-09-27T05:27:58;94567.56;;;12.79;71.53
12757;BME280;31601;48.042;12.240;2022-09-27T05:30:25;94573.81;;;12.61;71.63
12757;BME280;31601;48.042;12.240;2022-09-27T05:32:52;94573.66;;;12.68;71.65
12757;BME280;31601;48.042;12.240;2022-09-27T05:35:19;94571.69;;;12.75;71.63
12757;BME280;31601;48.042;12.240;2022-09-27T05:37:52;94579.91;;;12.79;71.48
12757;BME280;31601;48.042;12.240;2022-09-27T05:40:18;94576.72;;;12.77;71.22
12757;BME280;31601;48.042;12.240;2022-09-27T05:42:49;94581.31;;;12.69;71.04
12757;BME280;31601;48.042;12.240;2022-09-27T05:45:15;94582.63;;;12.67;71.39
12757;BME280;31601;48.042;12.240;2022-09-27T05:47:42;94587.91;;;12.55;71.45
12757;BME280;31601;48.042;12.240;2022-09-27T05:50:08;94584.66;;;12.65;71.50
12757;BME280;31601;48.042;12.240;2022-09-27T05:52:35;94582.44;;;12.74;71.37
12757;BME280;31601;48.042;12.240;2022-09-27T05:55:03;94583.94;;;12.69;71.48
12757;BME280;31601;48.042;12.240;2022-09-27T05:57:30;94600.94;;;12.79;71.59
12757;BME280;31601;48.042;12.240;2022-09-27T05:59:56;94606.88;;;12.86;71.29
12757;BME280;31601;48.042;12.240;2022-09-27T06:02:24;94603.69;;;12.84;71.33
12757;BME280;31601;48.042;12.240;2022-09-27T06:04:51;94612.09;;;12.69;71.72
12757;BME280;31601;48.042;12.240;2022-09-27T06:07:18;94617.91;;;12.71;71.32
12757;BME280;31601;48.042;12.240;2022-09-27T06:09:45;94608.28;;;12.77;71.27
12757;BME280;31601;48.042;12.240;2022-09-27T06:12:13;94622.13;;;12.55;71.66
12757;BME280;31601;48.042;12.240;2022-09-27T06:14:39;94610.44;;;12.80;71.12
12757;BME280;31601;48.042;12.240;2022-09-27T06:17:06;94613.75;;;12.87;70.86
12757;BME280;31601;48.042;12.240;2022-09-27T06:19:32;94619.00;;;12.87;70.95
12757;BME280;31601;48.042;12.240;2022-09-27T06:21:59;94629.06;;;12.90;71.20
12757;BME280;31601;48.042;12.240;2022-09-27T06:24:26;94628.63;;;12.81;71.03
12757;BME280;31601;48.042;12.240;2022-09-27T06:26:53;94626.97;;;12.92;70.68
12757;BME280;31601;48.042;12.240;2022-09-27T06:29:20;94631.69;;;12.90;70.10
12757;BME280;31601;48.042;12.240;2022-09-27T06:31:47;94636.16;;;13.06;69.82
12757;BME280;31601;48.042;12.240;2022-09-27T06:34:13;94636.56;;;12.98;69.53
12757;BME280;31601;48.042;12.240;2022-09-27T06:36:40;94631.78;;;13.12;69.26
12757;BME280;31601;48.042;12.240;2022-09-27T06:39:07;94639.13;;;13.10;69.40
12757;BME280;31601;48.042;12.240;2022-09-27T06:41:33;94641.03;;;13.15;69.38
12757;BME280;31601;48.042;12.240;2022-09-27T06:44:01;94650.38;;;13.05;69.07
12757;BME280;31601;48.042;12.240;2022-09-27T06:46:29;94650.38;;;13.22;69.07
12757;BME280;31601;48.042;12.240;2022-09-27T06:48:56;94652.00;;;13.40;69.12
12757;BME280;31601;48.042;12.240;2022-09-27T06:51:22;94664.19;;;13.47;68.64
12757;BME280;31601;48.042;12.240;2022-09-27T06:53:49;94668.84;;;13.39;68.31
12757;BME280;31601;48.042;12.240;2022-09-27T06:56:15;94664.38;;;13.57;67.39
12757;BME280;31601;48.042;12.240;2022-09-27T06:58:42;94674.66;;;13.58;67.41
12757;BME280;31601;48.042;12.240;2022-09-27T07:01:27;94677.38;;;13.64;66.84
12757;BME280;31601;48.042;12.240;2022-09-27T07:03:54;94679.53;;;13.50;67.52
12757;BME280;31601;48.042;12.240;2022-09-27T07:06:23;94673.00;;;13.35;67.35
12757;BME280;31601;48.042;12.240;2022-09-27T07:08:51;94676.31;;;13.31;66.33
12757;BME280;31601;48.042;12.240;2022-09-27T07:11:18;94677.72;;;13.04;67.81
12757;BME280;31601;48.042;12.240;2022-09-27T07:13:46;94683.06;;;13.38;67.37
12757;BME280;31601;48.042;12.240;2022-09-27T07:16:13;94691.19;;;13.37;66.53
12757;BME280;31601;48.042;12.240;2022-09-27T07:18:40;94680.34;;;13.67;66.83
12757;BME280;31601;48.042;12.240;2022-09-27T07:21:08;94685.34;;;13.86;66.43
12757;BME280;31601;48.042;12.240;2022-09-27T07:23:35;94683.03;;;13.89;65.55
12757;BME280;31601;48.042;12.240;2022-09-27T07:26:02;94681.94;;;13.51;65.82
12757;BME280;31601;48.042;12.240;2022-09-27T07:28:31;94689.03;;;13.51;66.26
12757;BME280;31601;48.042;12.240;2022-09-27T07:30:58;94693.59;;;13.55;66.08
12757;BME280;31601;48.042;12.240;2022-09-27T07:33:24;94690.22;;;13.60;65.90
12757;BME280;31601;48.042;12.240;2022-09-27T07:35:51;94698.53;;;13.86;66.30
12757;BME280;31601;48.042;12.240;2022-09-27T07:38:19;94702.69;;;13.82;64.80
12757;BME280;31601;48.042;12.240;2022-09-27T07:40:45;94698.19;;;14.38;63.76
12757;BME280;31601;48.042;12.240;2022-09-27T07:43:12;94704.78;;;14.41;64.51
12757;BME280;31601;48.042;12.240;2022-09-27T07:45:38;94705.75;;;14.74;63.85
12757;BME280;31601;48.042;12.240;2022-09-27T07:48:05;94699.94;;;14.99;62.99
12757;BME280;31601;48.042;12.240;2022-09-27T07:52:58;94695.34;;;14.67;62.62
12757;BME280;31601;48.042;12.240;2022-09-27T07:55:26;94702.59;;;14.77;62.00
12757;BME280;31601;48.042;12.240;2022-09-27T07:58:01;94700.63;;;14.89;63.34
12757;BME280;31601;48.042;12.240;2022-09-27T08:00:28;94705.78;;;14.79;61.83
12757;BME280;31601;48.042;12.240;2022-09-27T08:02:54;94702.59;;;14.77;61.96
12757;BME280;31601;48.042;12.240;2022-09-27T08:05:21;94704.34;;;14.93;61.80
12757;BME280;31601;48.042;12.240;2022-09-27T08:07:53;94710.19;;;14.73;62.59
12757;BME280;31601;48.042;12.240;2022-09-27T08:10:20;94713.91;;;14.72;61.96
12757;BME280;31601;48.042;12.240;2022-09-27T08:12:50;94717.47;;;14.83;61.27
12757;BME280;31601;48.042;12.240;2022-09-27T08:15:17;94721.09;;;14.38;61.12
12757;BME280;31601;48.042;12.240;2022-09-27T08:17:43;94721.69;;;14.62;61.76
12757;BME280;31601;48.042;12.240;2022-09-27T08:20:10;94729.66;;;14.67;61.42
12757;BME280;31601;48.042;12.240;2022-09-27T08:22:39;94723.34;;;14.68;62.16
12757;BME280;31601;48.042;12.240;2022-09-27T08:25:06;94721.44;;;14.85;61.40
12757;BME280;31601;48.042;12.240;2022-09-27T08:27:33;94726.69;;;15.08;60.20
12757;BME280;31601;48.042;12.240;2022-09-27T08:30:01;94728.66;;;15.22;60.02
12757;BME280;31601;48.042;12.240;2022-09-27T08:32:28;94724.00;;;15.30;59.83
12757;BME280;31601;48.042;12.240;2022-09-27T08:34:55;94719.38;;;15.47;59.90
12757;BME280;31601;48.042;12.240;2022-09-27T08:37:21;94722.63;;;15.54;60.00
12757;BME280;31601;48.042;12.240;2022-09-27T08:39:48;94729.69;;;15.49;60.56
12757;BME280;31601;48.042;12.240;2022-09-27T08:42:24;94735.19;;;15.42;59.94
12757;BME280;31601;48.042;12.240;2022-09-27T08:45:02;94737.69;;;15.27;61.14
12757;BME280;31601;48.042;12.240;2022-09-27T08:47:34;94740.94;;;15.07;61.73
12757;BME280;31601;48.042;12.240;2022-09-27T08:50:12;94731.16;;;14.80;62.90
12757;BME280;31601;48.042;12.240;2022-09-27T08:52:44;94719.03;;;14.84;63.30
12757;BME280;31601;48.042;12.240;2022-09-27T08:55:21;94720.56;;;15.29;63.20
12757;BME280;31601;48.042;12.240;2022-09-27T08:57:54;94722.97;;;15.31;63.79
12757;BME280;31601;48.042;12.240;2022-09-27T09:00:23;94723.72;;;15.58;62.80
12757;BME280;31601;48.042;12.240;2022-09-27T09:02:50;94714.94;;;15.80;61.21
12757;BME280;31601;48.042;12.240;2022-09-27T09:05:22;94727.81;;;15.76;61.55
12757;BME280;31601;48.042;12.240;2022-09-27T09:08:00;94778.22;;;15.10;61.74
12757;BME280;31601;48.042;12.240;2022-09-27T09:10:42;94788.22;;;12.23;65.12
12757;BME280;31601;48.042;12.240;2022-09-27T09:16:33;94798.44;;;10.37;73.68
12757;BME280;31601;48.042;12.240;2022-09-27T09:19:22;94787.69;;;10.46;75.79
12757;BME280;31601;48.042;12.240;2022-09-27T09:21:58;94789.22;;;10.53;75.47
12757;BME280;31601;48.042;12.240;2022-09-27T09:24:38;94791.53;;;10.43;76.11
12757;BME280;31601;48.042;12.240;2022-09-27T09:27:15;94789.09;;;10.97;76.87
12757;BME280;31601;48.042;12.240;2022-09-27T09:30:03;94796.25;;;11.20;75.57
12757;BME280;31601;48.042;12.240;2022-09-27T09:32:40;94794.03;;;11.36;74.80
12757;BME280;31601;48.042;12.240;2022-09-27T09:35:14;94801.53;;;11.74;74.29
12757;BME280;31601;48.042;12.240;2022-09-27T09:37:45;94793.13;;;12.20;72.57
12757;BME280;31601;48.042;12.240;2022-09-27T09:40:19;94789.59;;;12.38;72.87
12757;BME280;31601;48.042;12.240;2022-09-27T09:42:51;94789.00;;;12.35;70.79
12757;BME280;31601;48.042;12.240;2022-09-27T09:45:21;94786.38;;;12.35;71.07
12757;BME280;31601;48.042;12.240;2022-09-27T09:47:56;94794.56;;;12.75;70.44
12757;BME280;31601;48.042;12.240;2022-09-27T09:50:27;94796.44;;;12.50;69.59
12757;BME280;31601;48.042;12.240;2022-09-27T09:52:58;94789.22;;;12.98;69.47
12757;BME280;31601;48.042;12.240;2022-09-27T09:55:30;94786.97;;;12.90;69.08
12757;BME280;31601;48.042;12.240;2022-09-27T09:58:04;94786.69;;;13.03;68.01
12757;BME280;31601;48.042;12.240;2022-09-27T10:00:31;94784.41;;;13.07;66.25
12757;BME280;31601;48.042;12.240;2022-09-27T10:02:59;94784.34;;;13.19;67.30
12757;BME280;31601;48.042;12.240;2022-09-27T10:05:26;94771.59;;;13.28;65.79
12757;BME280;31601;48.042;12.240;2022-09-27T10:07:56;94781.56;;;13.54;65.94
12757;BME280;31601;48.042;12.240;2022-09-27T10:10:25;94780.22;;;13.52;66.39
12757;BME280;31601;48.042;12.240;2022-09-27T10:12:51;94771.94;;;13.77;67.29
12757;BME280;31601;48.042;12.240;2022-09-27T10:15:20;94778.72;;;13.73;64.49
12757;BME280;31601;48.042;12.240;2022-09-27T10:17:48;94774.31;;;13.95;64.97
12757;BME280;31601;48.042;12.240;2022-09-27T10:20:24;94780.78;;;13.71;63.40
12757;BME280;31601;48.042;12.240;2022-09-27T10:22:53;94789.34;;;14.29;62.87
12757;BME280;31601;48.042;12.240;2022-09-27T10:25:22;94796.31;;;14.01;62.68
12757;BME280;31601;48.042;12.240;2022-09-27T10:27:51;94795.13;;;14.48;61.42
12757;BME280;31601;48.042;12.240;2022-09-27T10:30:24;94782.03;;;14.36;61.04
12757;BME280;31601;48.042;12.240;2022-09-27T10:32:53;94788.09;;;14.54;59.33
12757;BME280;31601;48.042;12.240;2022-09-27T10:35:34;94789.84;;;14.48;59.38
12757;BME280;31601;48.042;12.240;2022-09-27T10:38:20;94788.28;;;14.30;59.71
12757;BME280;31601;48.042;12.240;2022-09-27T10:40:48;94795.69;;;14.33;60.08
12757;BME280;31601;48.042;12.240;2022-09-27T10:43:29;94804.59;;;13.76;61.10
12757;BME280;31601;48.042;12.240;2022-09-27T10:46:04;94811.06;;;13.68;62.71
12757;BME280;31601;48.042;12.240;2022-09-27T10:48:31;94814.34;;;13.75;62.30
12757;BME280;31601;48.042;12.240;2022-09-27T10:51:00;94820.50;;;13.35;63.06
12757;BME280;31601;48.042;12.240;2022-09-27T10:53:28;94823.47;;;12.86;64.47
12757;BME280;31601;48.042;12.240;2022-09-27T10:55:56;94834.91;;;13.45;64.38
12757;BME280;31601;48.042;12.240;2022-09-27T10:58:26;94836.03;;;13.49;64.06
12757;BME280;31601;48.042;12.240;2022-09-27T11:00:54;94842.47;;;13.29;64.85
12757;BME280;31601;48.042;12.240;2022-09-27T11:03:22;94842.25;;;13.42;64.57
12757;BME280;31601;48.042;12.240;2022-09-27T11:05:50;94846.25;;;13.62;63.43
12757;BME280;31601;48.042;12.240;2022-09-27T11:08:28;94855.31;;;13.66;63.67
12757;BME280;31601;48.042;12.240;2022-09-27T11:11:09;94861.72;;;13.70;62.93
12757;BME280;31601;48.042;12.240;2022-09-27T11:13:57;94854.78;;;13.98;61.54
12757;BME280;31601;48.042;12.240;2022-09-27T11:16:31;94857.50;;;14.20;60.84
12757;BME280;31601;48.042;12.240;2022-09-27T11:19:07;94855.28;;;14.12;60.28
12757;BME280;31601;48.042;12.240;2022-09-27T11:21:43;94861.03;;;14.26;59.53
12757;BME280;31601;48.042;12.240;2022-09-27T11:24:26;94851.75;;;14.06;60.20
12757;BME280;31601;48.042;12.240;2022-09-27T11:27:06;94855.81;;;13.80;61.21
12757;BME280;31601;48.042;12.240;2022-09-27T11:29:44;94851.75;;;14.06;60.79
12757;BME280;31601;48.042;12.240;2022-09-27T11:32:27;94839.25;;;14.53;59.79
12757;BME280;31601;48.042;12.240;2022-09-27T11:35:07;94844.34;;;14.59;58.86
12757;BME280;31601;48.042;12.240;2022-09-27T11:37:45;94845.81;;;14.50;59.16
12757;BME280;31601;48.042;12.240;2022-09-27T11:40:24;94846.03;;;15.04;58.11
12757;BME280;31601;48.042;12.240;2022-09-27T11:43:17;94846.09;;;14.88;57.44
12757;BME280;31601;48.042;12.240;2022-09-27T11:45:53;94839.03;;;15.15;58.32
12757;BME280;31601;48.042;12.240;2022-09-27T11:48:29;94840.13;;;15.19;59.81
12757;BME280;31601;48.042;12.240;2022-09-27T11:51:07;94832.09;;;15.09;59.52
12757;BME280;31601;48.042;12.240;2022-09-27T11:53:57;94834.28;;;15.17;60.25
12757;BME280;31601;48.042;12.240;2022-09-27T11:56:35;94823.03;;;15.27;57.96
12757;BME280;31601;48.042;12.240;2022-09-27T11:59:32;94821.22;;;15.28;57.10
12757;BME280;31601;48.042;12.240;2022-09-27T12:02:12;94812.25;;;14.84;56.80
12757;BME280;31601;48.042;12.240;2022-09-27T12:04:54;94805.63;;;14.82;56.75
12757;BME280;31601;48.042;12.240;2022-09-27T12:07:29;94805.59;;;15.04;57.73
12757;BME280;31601;48.042;12.240;2022-09-27T12:10:01;94810.22;;;14.92;56.66
12757;BME280;31601;48.042;12.240;2022-09-27T12:12:32;94796.91;;;15.03;55.34
12757;BME280;31601;48.042;12.240;2022-09-27T12:15:02;94804.31;;;15.07;55.45
12757;BME280;31601;48.042;12.240;2022-09-27T12:17:33;94812.19;;;15.51;54.03
12757;BME280;31601;48.042;12.240;2022-09-27T12:20:05;94799.53;;;15.53;54.61
12757;BME280;31601;48.042;12.240;2022-09-27T12:22:39;94803.16;;;15.74;53.08
12757;BME280;31601;48.042;12.240;2022-09-27T12:25:11;94807.59;;;15.41;54.59
12757;BME280;31601;48.042;12.240;2022-09-27T12:27:44;94795.47;;;15.72;53.55
12757;BME280;31601;48.042;12.240;2022-09-27T12:30:12;94793.81;;;15.93;53.59
12757;BME280;31601;48.042;12.240;2022-09-27T12:32:49;94786.09;;;16.24;53.61
12757;BME280;31601;48.042;12.240;2022-09-27T12:35:19;94789.28;;;16.26;51.71
12757;BME280;31601;48.042;12.240;2022-09-27T12:37:49;94795.78;;;16.08;53.08
12757;BME280;31601;48.042;12.240;2022-09-27T12:40:20;94789.84;;;15.64;53.59
12757;BME280;31601;48.042;12.240;2022-09-27T12:42:54;94783.09;;;16.10;52.33
12757;BME280;31601;48.042;12.240;2022-09-27T12:45:36;94781.81;;;16.18;52.21
12757;BME280;31601;48.042;12.240;2022-09-27T12:48:10;94773.38;;;16.21;50.65
12757;BME280;31601;48.042;12.240;2022-09-27T12:50:43;94769.72;;;16.27;50.04
12757;BME280;31601;48.042;12.240;2022-09-27T12:53:14;94766.75;;;16.19;49.36
12757;BME280;31601;48.042;12.240;2022-09-27T12:56:08;94768.78;;;16.49;50.74
12757;BME280;31601;48.042;12.240;2022-09-27T12:59:02;94766.56;;;16.36;49.40
12757;BME280;31601;48.042;12.240;2022-09-27T13:01:44;94773.56;;;16.52;49.92
12757;BME280;31601;48.042;12.240;2022-09-27T13:04:26;94773.66;;;16.73;48.60
12757;BME280;31601;48.042;12.240;2022-09-27T13:07:12;94775.94;;;16.49;48.95
12757;BME280;31601;48.042;12.240;2022-09-27T13:10:10;94771.09;;;15.98;49.13
12757;BME280;31601;48.042;12.240;2022-09-27T13:12:40;94780.47;;;16.16;49.63
12757;BME280;31601;48.042;12.240;2022-09-27T13:15:18;94784.25;;;16.25;48.76